sensor_id;sensor_type;location;lat;lon;timestamp;P1;durP1;ratioP1;P2;durP2;ratioP2
35306;SDS011;21420;52.196;21.416;2022-11-12T00:02:30;21.60;;;16.35;;
35306;SDS011;21420;52.196;21.416;2022-11-12T00:05:15;24.20;;;16.87;;
35306;SDS011;21420;52.196;21.416;2022-11-12T00:08:00;22.52;;;15.83;;
35306;SDS011;21420;52.196;21.416;2022-11-12T00:10:45;22.05;;;16.23;;
35306;SDS011;21420;52.196;21.416;2022-11-12T00:13:29;20.52;;;17.35;;
35306;SDS011;21420;52.196;21.416;2022-11-12T00:16:14;24.15;;;16.90;;
35306;SDS011;21420;52.196;21.416;2022-11-12T00:18:59;23.10;;;16.27;;
35306;SDS011;21420;52.196;21.416;2022-11-12T00:21:43;19.90;;;15.58;;
35306;SDS011;21420;52.196;21.416;2022-11-12T00:24:28;23.65;;;15.68;;
35306;SDS011;21420;52.196;21.416;2022-11-12T00:27:13;22.52;;;16.23;;
35306;SDS011;21420;52.196;21.416;2022-11-12T00:29:58;23.27;;;16.35;;
35306;SDS011;21420;52.196;21.416;2022-11-12T00:32:43;23.25;;;16.17;;
35306;SDS011;21420;52.196;21.416;2022-11-12T00:35:27;22.93;;;17.10;;
35306;SDS011;21420;52.196;21.416;2022-11-12T00:38:15;20.72;;;16.05;;
35306;SDS011;21420;52.196;21.416;2022-11-12T00:40:59;18.00;;;14.95;;
35306;SDS011;21420;52.196;21.416;2022-11-12T00:43:44;24.65;;;16.02;;
35306;SDS011;21420;52.196;21.416;2022-11-12T00:46:29;21.27;;;15.80;;
35306;SDS011;21420;52.196;21.416;2022-11-12T00:49:14;20.90;;;15.40;;
35306;SDS011;21420;52.196;21.416;2022-11-12T00:51:59;21.10;;;16.12;;
35306;SDS011;21420;52.196;21.416;2022-11-12T00:54:44;18.70;;;15.70;;
35306;SDS011;21420;52.196;21.416;2022-11-12T00:57:28;19.55;;;15.10;;
35306;SDS011;21420;52.196;21.416;2022-11-12T01:00:17;24.87;;;15.90;;
35306;SDS011;21420;52.196;21.416;2022-11-12T01:03:02;18.25;;;15.03;;
35306;SDS011;21420;52.196;21.416;2022-11-12T01:05:47;22.02;;;15.28;;
35306;SDS011;21420;52.196;21.416;2022-11-12T01:08:32;22.62;;;15.65;;
35306;SDS011;21420;52.196;21.416;2022-11-12T01:11:21;22.60;;;15.10;;
35306;SDS011;21420;52.196;21.416;2022-11-12T01:14:12;21.10;;;16.70;;
35306;SDS011;21420;52.196;21.416;2022-11-12T01:16:56;21.07;;;14.70;;
35306;SDS011;21420;52.196;21.416;2022-11-12T01:19:41;21.68;;;14.58;;
35306;SDS011;21420;52.196;21.416;2022-11-12T01:22:26;20.95;;;15.20;;
35306;SDS011;21420;52.196;21.416;2022-11-12T01:25:10;23.45;;;15.75;;
35306;SDS011;21420;52.196;21.416;2022-11-12T01:27:55;21.87;;;16.05;;
35306;SDS011;21420;52.196;21.416;2022-11-12T01:30:40;17.35;;;15.00;;
35306;SDS011;21420;52.196;21.416;2022-11-12T01:33:25;19.12;;;14.78;;
35306;SDS011;21420;52.196;21.416;2022-11-12T01:36:10;20.10;;;15.35;;
35306;SDS011;21420;52.196;21.416;2022-11-12T01:38:57;21.90;;;15.70;;
35306;SDS011;21420;52.196;21.416;2022-11-12T01:41:42;23.90;;;15.32;;
35306;SDS011;21420;52.196;21.416;2022-11-12T01:44:29;19.70;;;15.18;;
35306;SDS011;21420;52.196;21.416;2022-11-12T01:47:19;20.62;;;15.08;;
35306;SDS011;21420;52.196;21.416;2022-11-12T01:50:14;21.42;;;15.05;;
35306;SDS011;21420;52.196;21.416;2022-11-12T01:53:19;22.77;;;15.68;;
35306;SDS011;21420;52.196;21.416;2022-11-12T01:56:06;19.40;;;14.45;;
35306;SDS011;21420;52.196;21.416;2022-11-12T01:58:51;20.00;;;15.13;;
35306;SDS011;21420;52.196;21.416;2022-11-12T02:01:41;22.77;;;15.25;;
35306;SDS011;21420;52.196;21.416;2022-11-12T02:04:26;21.27;;;15.68;;
35306;SDS011;21420;52.196;21.416;2022-11-12T02:07:11;21.37;;;16.27;;
35306;SDS011;21420;52.196;21.416;2022-11-12T02:09:57;22.50;;;15.98;;
35306;SDS011;21420;52.196;21.416;2022-11-12T02:12:44;17.30;;;14.85;;
35306;SDS011;21420;52.196;21.416;2022-11-12T02:15:48;20.77;;;15.75;;
35306;SDS011;21420;52.196;21.416;2022-11-12T02:18:33;22.50;;;15.38;;
35306;SDS011;21420;52.196;21.416;2022-11-12T02:21:23;19.48;;;15.08;;
35306;SDS011;21420;52.196;21.416;2022-11-12T02:27:03;20.72;;;14.95;;
35306;SDS011;21420;52.196;21.416;2022-11-12T02:29:49;22.67;;;15.15;;
35306;SDS011;21420;52.196;21.416;2022-11-12T02:32:34;21.97;;;15.32;;
35306;SDS011;21420;52.196;21.416;2022-11-12T02:35:19;18.32;;;15.55;;
35306;SDS011;21420;52.196;21.416;2022-11-12T02:38:04;23.60;;;15.18;;
35306;SDS011;21420;52.196;21.416;2022-11-12T02:40:50;20.27;;;14.95;;
35306;SDS011;21420;52.196;21.416;2022-11-12T02:43:35;22.70;;;13.88;;
35306;SDS011;21420;52.196;21.416;2022-11-12T02:46:19;23.85;;;15.63;;
35306;SDS011;21420;52.196;21.416;2022-11-12T02:49:04;21.60;;;14.90;;
35306;SDS011;21420;52.196;21.416;2022-11-12T02:51:49;21.82;;;15.50;;
35306;SDS011;21420;52.196;21.416;2022-11-12T02:54:34;18.87;;;14.10;;
35306;SDS011;21420;52.196;21.416;2022-11-12T02:57:18;23.67;;;15.28;;
35306;SDS011;21420;52.196;21.416;2022-11-12T03:00:03;21.85;;;15.05;;
35306;SDS011;21420;52.196;21.416;2022-11-12T03:02:51;22.22;;;14.80;;
35306;SDS011;21420;52.196;21.416;2022-11-12T03:05:43;19.25;;;14.53;;
35306;SDS011;21420;52.196;21.416;2022-11-12T03:08:28;18.82;;;15.25;;
35306;SDS011;21420;52.196;21.416;2022-11-12T03:11:13;21.55;;;15.18;;
35306;SDS011;21420;52.196;21.416;2022-11-12T03:14:06;22.35;;;15.63;;
35306;SDS011;21420;52.196;21.416;2022-11-12T03:19:21;18.62;;;14.98;;
35306;SDS011;21420;52.196;21.416;2022-11-12T03:22:06;19.17;;;14.45;;
35306;SDS011;21420;52.196;21.416;2022-11-12T03:24:51;20.20;;;14.60;;
35306;SDS011;21420;52.196;21.416;2022-11-12T03:27:35;21.77;;;14.78;;
35306;SDS011;21420;52.196;21.416;2022-11-12T03:30:20;20.65;;;14.90;;
35306;SDS011;21420;52.196;21.416;2022-11-12T03:33:05;18.70;;;14.47;;
35306;SDS011;21420;52.196;21.416;2022-11-12T03:35:53;17.85;;;14.07;;
35306;SDS011;21420;52.196;21.416;2022-11-12T03:38:38;19.77;;;13.98;;
35306;SDS011;21420;52.196;21.416;2022-11-12T03:41:23;20.48;;;15.18;;
35306;SDS011;21420;52.196;21.416;2022-11-12T03:44:07;21.50;;;14.85;;
35306;SDS011;21420;52.196;21.416;2022-11-12T03:46:52;18.55;;;15.05;;
35306;SDS011;21420;52.196;21.416;2022-11-12T03:49:37;21.55;;;15.58;;
35306;SDS011;21420;52.196;21.416;2022-11-12T03:52:22;24.82;;;14.80;;
35306;SDS011;21420;52.196;21.416;2022-11-12T03:55:06;20.45;;;15.03;;
35306;SDS011;21420;52.196;21.416;2022-11-12T03:57:51;19.62;;;15.30;;
35306;SDS011;21420;52.196;21.416;2022-11-12T04:00:37;16.73;;;14.30;;
35306;SDS011;21420;52.196;21.416;2022-11-12T04:03:22;18.45;;;14.30;;
35306;SDS011;21420;52.196;21.416;2022-11-12T04:06:07;17.30;;;14.18;;
35306;SDS011;21420;52.196;21.416;2022-11-12T04:09:10;21.62;;;14.65;;
35306;SDS011;21420;52.196;21.416;2022-11-12T04:11:55;18.60;;;15.30;;
35306;SDS011;21420;52.196;21.416;2022-11-12T04:14:41;19.98;;;13.98;;
35306;SDS011;21420;52.196;21.416;2022-11-12T04:17:26;18.45;;;14.78;;
35306;SDS011;21420;52.196;21.416;2022-11-12T04:20:13;18.27;;;14.03;;
35306;SDS011;21420;52.196;21.416;2022-11-12T04:23:16;20.15;;;14.73;;
35306;SDS011;21420;52.196;21.416;2022-11-12T04:26:01;16.97;;;14.13;;
35306;SDS011;21420;52.196;21.416;2022-11-12T04:29:06;21.25;;;15.05;;
35306;SDS011;21420;52.196;21.416;2022-11-12T04:32:10;22.20;;;15.23;;
35306;SDS011;21420;52.196;21.416;2022-11-12T04:34:54;17.87;;;14.93;;
35306;SDS011;21420;52.196;21.416;2022-11-12T04:37:40;19.17;;;13.95;;
35306;SDS011;21420;52.196;21.416;2022-11-12T04:40:27;18.73;;;13.68;;
35306;SDS011;21420;52.196;21.416;2022-11-12T04:43:31;17.52;;;13.78;;
35306;SDS011;21420;52.196;21.416;2022-11-12T04:46:33;22.32;;;14.15;;
35306;SDS011;21420;52.196;21.416;2022-11-12T04:49:18;19.32;;;14.85;;
35306;SDS011;21420;52.196;21.416;2022-11-12T04:52:03;20.10;;;14.03;;
35306;SDS011;21420;52.196;21.416;2022-11-12T04:54:47;17.98;;;13.50;;
35306;SDS011;21420;52.196;21.416;2022-11-12T04:57:32;18.15;;;13.80;;
35306;SDS011;21420;52.196;21.416;2022-11-12T05:00:17;16.52;;;14.15;;
35306;SDS011;21420;52.196;21.416;2022-11-12T05:03:03;22.30;;;14.98;;
35306;SDS011;21420;52.196;21.416;2022-11-12T05:05:48;19.10;;;13.58;;
35306;SDS011;21420;52.196;21.416;2022-11-12T05:08:33;20.75;;;13.48;;
35306;SDS011;21420;52.196;21.416;2022-11-12T05:11:17;17.75;;;13.93;;
35306;SDS011;21420;52.196;21.416;2022-11-12T05:14:02;19.20;;;13.90;;
35306;SDS011;21420;52.196;21.416;2022-11-12T05:16:47;18.87;;;14.18;;
35306;SDS011;21420;52.196;21.416;2022-11-12T05:19:32;17.82;;;14.70;;
35306;SDS011;21420;52.196;21.416;2022-11-12T05:22:17;21.77;;;15.50;;
35306;SDS011;21420;52.196;21.416;2022-11-12T05:25:04;19.70;;;13.55;;
35306;SDS011;21420;52.196;21.416;2022-11-12T05:27:51;19.60;;;13.90;;
35306;SDS011;21420;52.196;21.416;2022-11-12T05:30:35;18.77;;;13.60;;
35306;SDS011;21420;52.196;21.416;2022-11-12T05:33:20;20.00;;;13.70;;
35306;SDS011;21420;52.196;21.416;2022-11-12T05:36:05;19.82;;;12.75;;
35306;SDS011;21420;52.196;21.416;2022-11-12T05:38:50;17.50;;;13.30;;
35306;SDS011;21420;52.196;21.416;2022-11-12T05:41:35;17.50;;;13.00;;
35306;SDS011;21420;52.196;21.416;2022-11-12T05:44:20;17.55;;;13.43;;
35306;SDS011;21420;52.196;21.416;2022-11-12T05:47:04;19.35;;;13.72;;
35306;SDS011;21420;52.196;21.416;2022-11-12T05:49:49;19.37;;;13.18;;
35306;SDS011;21420;52.196;21.416;2022-11-12T05:52:33;18.85;;;13.45;;
35306;SDS011;21420;52.196;21.416;2022-11-12T05:55:18;17.57;;;12.68;;
35306;SDS011;21420;52.196;21.416;2022-11-12T05:58:03;18.92;;;12.68;;
35306;SDS011;21420;52.196;21.416;2022-11-12T06:00:51;15.53;;;12.37;;
35306;SDS011;21420;52.196;21.416;2022-11-12T06:03:36;15.70;;;12.85;;
35306;SDS011;21420;52.196;21.416;2022-11-12T06:06:21;18.32;;;13.32;;
35306;SDS011;21420;52.196;21.416;2022-11-12T06:09:06;16.60;;;13.35;;
35306;SDS011;21420;52.196;21.416;2022-11-12T06:11:52;17.85;;;13.45;;
35306;SDS011;21420;52.196;21.416;2022-11-12T06:14:36;13.95;;;12.45;;
35306;SDS011;21420;52.196;21.416;2022-11-12T06:17:21;18.15;;;13.83;;
35306;SDS011;21420;52.196;21.416;2022-11-12T06:20:06;14.98;;;13.45;;
35306;SDS011;21420;52.196;21.416;2022-11-12T06:22:52;17.02;;;12.95;;
35306;SDS011;21420;52.196;21.416;2022-11-12T06:25:36;19.32;;;14.10;;
35306;SDS011;21420;52.196;21.416;2022-11-12T06:28:21;17.30;;;13.60;;
35306;SDS011;21420;52.196;21.416;2022-11-12T06:31:05;20.30;;;13.65;;
35306;SDS011;21420;52.196;21.416;2022-11-12T06:33:51;19.95;;;14.15;;
35306;SDS011;21420;52.196;21.416;2022-11-12T06:36:35;18.20;;;14.78;;
35306;SDS011;21420;52.196;21.416;2022-11-12T06:39:20;17.87;;;14.30;;
35306;SDS011;21420;52.196;21.416;2022-11-12T06:42:04;20.37;;;15.90;;
35306;SDS011;21420;52.196;21.416;2022-11-12T06:44:49;16.73;;;14.05;;
35306;SDS011;21420;52.196;21.416;2022-11-12T06:47:34;24.77;;;15.75;;
35306;SDS011;21420;52.196;21.416;2022-11-12T06:50:18;23.32;;;16.75;;
35306;SDS011;21420;52.196;21.416;2022-11-12T06:53:03;21.17;;;16.45;;
35306;SDS011;21420;52.196;21.416;2022-11-12T06:55:48;23.90;;;17.92;;
35306;SDS011;21420;52.196;21.416;2022-11-12T06:58:33;27.80;;;18.65;;
35306;SDS011;21420;52.196;21.416;2022-11-12T07:01:18;30.12;;;19.77;;
35306;SDS011;21420;52.196;21.416;2022-11-12T07:04:03;27.65;;;18.60;;
35306;SDS011;21420;52.196;21.416;2022-11-12T07:06:48;31.65;;;21.05;;
35306;SDS011;21420;52.196;21.416;2022-11-12T07:09:32;30.48;;;19.98;;
35306;SDS011;21420;52.196;21.416;2022-11-12T07:12:17;27.55;;;20.17;;
35306;SDS011;21420;52.196;21.416;2022-11-12T07:15:02;28.70;;;19.55;;
35306;SDS011;21420;52.196;21.416;2022-11-12T07:17:48;24.92;;;19.85;;
35306;SDS011;21420;52.196;21.416;2022-11-12T07:20:32;26.62;;;20.23;;
35306;SDS011;21420;52.196;21.416;2022-11-12T07:23:18;31.07;;;20.57;;
35306;SDS011;21420;52.196;21.416;2022-11-12T07:26:09;31.70;;;20.92;;
35306;SDS011;21420;52.196;21.416;2022-11-12T07:28:53;26.25;;;19.75;;
35306;SDS011;21420;52.196;21.416;2022-11-12T07:31:40;21.95;;;17.75;;
35306;SDS011;21420;52.196;21.416;2022-11-12T07:34:25;24.55;;;19.48;;
35306;SDS011;21420;52.196;21.416;2022-11-12T07:37:10;25.60;;;18.15;;
35306;SDS011;21420;52.196;21.416;2022-11-12T07:39:55;24.72;;;19.12;;
35306;SDS011;21420;52.196;21.416;2022-11-12T07:42:39;22.30;;;17.92;;
35306;SDS011;21420;52.196;21.416;2022-11-12T07:45:24;23.30;;;18.48;;
35306;SDS011;21420;52.196;21.416;2022-11-12T07:48:08;23.52;;;19.48;;
35306;SDS011;21420;52.196;21.416;2022-11-12T07:50:58;25.82;;;19.90;;
35306;SDS011;21420;52.196;21.416;2022-11-12T07:53:46;23.10;;;20.50;;
35306;SDS011;21420;52.196;21.416;2022-11-12T07:56:32;28.70;;;21.42;;
35306;SDS011;21420;52.196;21.416;2022-11-12T07:59:17;29.50;;;22.52;;
35306;SDS011;21420;52.196;21.416;2022-11-12T08:02:01;31.95;;;23.83;;
35306;SDS011;21420;52.196;21.416;2022-11-12T08:04:46;26.93;;;21.85;;
35306;SDS011;21420;52.196;21.416;2022-11-12T08:07:31;28.45;;;22.85;;
35306;SDS011;21420;52.196;21.416;2022-11-12T08:10:15;27.98;;;22.73;;
35306;SDS011;21420;52.196;21.416;2022-11-12T08:13:00;30.37;;;24.27;;
35306;SDS011;21420;52.196;21.416;2022-11-12T08:15:45;31.97;;;24.47;;
35306;SDS011;21420;52.196;21.416;2022-11-12T08:18:31;37.17;;;27.00;;
35306;SDS011;21420;52.196;21.416;2022-11-12T08:21:17;35.98;;;28.42;;
35306;SDS011;21420;52.196;21.416;2022-11-12T08:24:03;36.58;;;27.77;;
35306;SDS011;21420;52.196;21.416;2022-11-12T08:26:48;36.60;;;28.85;;
35306;SDS011;21420;52.196;21.416;2022-11-12T08:29:32;41.37;;;28.50;;
35306;SDS011;21420;52.196;21.416;2022-11-12T08:32:17;42.15;;;29.15;;
35306;SDS011;21420;52.196;21.416;2022-11-12T08:35:01;40.60;;;30.82;;
35306;SDS011;21420;52.196;21.416;2022-11-12T08:37:46;43.00;;;29.82;;
35306;SDS011;21420;52.196;21.416;2022-11-12T08:40:31;40.90;;;29.45;;
35306;SDS011;21420;52.196;21.416;2022-11-12T08:43:16;37.60;;;28.52;;
35306;SDS011;21420;52.196;21.416;2022-11-12T08:46:01;30.97;;;24.47;;
35306;SDS011;21420;52.196;21.416;2022-11-12T08:48:47;33.18;;;23.98;;
35306;SDS011;21420;52.196;21.416;2022-11-12T08:51:32;33.53;;;25.10;;
35306;SDS011;21420;52.196;21.416;2022-11-12T08:54:16;31.70;;;23.40;;
35306;SDS011;21420;52.196;21.416;2022-11-12T08:57:01;30.05;;;22.65;;
35306;SDS011;21420;52.196;21.416;2022-11-12T08:59:46;30.15;;;24.02;;
35306;SDS011;21420;52.196;21.416;2022-11-12T09:02:30;29.30;;;24.10;;
35306;SDS011;21420;52.196;21.416;2022-11-12T09:05:15;29.57;;;24.10;;
35306;SDS011;21420;52.196;21.416;2022-11-12T09:08:00;30.80;;;23.75;;
35306;SDS011;21420;52.196;21.416;2022-11-12T09:10:48;29.80;;;23.15;;
35306;SDS011;21420;52.196;21.416;2022-11-12T09:13:34;32.13;;;25.00;;
35306;SDS011;21420;52.196;21.416;2022-11-12T09:16:19;32.98;;;26.33;;
35306;SDS011;21420;52.196;21.416;2022-11-12T09:19:05;35.55;;;26.50;;
35306;SDS011;21420;52.196;21.416;2022-11-12T09:21:50;36.13;;;26.45;;
35306;SDS011;21420;52.196;21.416;2022-11-12T09:24:36;31.50;;;25.25;;
35306;SDS011;21420;52.196;21.416;2022-11-12T09:27:21;36.42;;;27.85;;
35306;SDS011;21420;52.196;21.416;2022-11-12T09:30:06;43.38;;;31.30;;
35306;SDS011;21420;52.196;21.416;2022-11-12T09:32:55;40.73;;;29.35;;
35306;SDS011;21420;52.196;21.416;2022-11-12T09:35:42;39.48;;;28.50;;
35306;SDS011;21420;52.196;21.416;2022-11-12T09:38:28;41.50;;;32.78;;
35306;SDS011;21420;52.196;21.416;2022-11-12T09:41:21;39.83;;;30.88;;
35306;SDS011;21420;52.196;21.416;2022-11-12T09:47:17;36.88;;;30.08;;
35306;SDS011;21420;52.196;21.416;2022-11-12T09:50:20;41.98;;;30.32;;
35306;SDS011;21420;52.196;21.416;2022-11-12T09:53:22;43.52;;;33.42;;
35306;SDS011;21420;52.196;21.416;2022-11-12T09:56:18;43.83;;;34.78;;
35306;SDS011;21420;52.196;21.416;2022-11-12T09:59:10;41.50;;;33.60;;
35306;SDS011;21420;52.196;21.416;2022-11-12T10:01:58;41.65;;;33.45;;
35306;SDS011;21420;52.196;21.416;2022-11-12T10:05:21;42.23;;;31.57;;
35306;SDS011;21420;52.196;21.416;2022-11-12T10:15:16;40.55;;;32.83;;
35306;SDS011;21420;52.196;21.416;2022-11-12T10:21:53;40.95;;;31.15;;
35306;SDS011;21420;52.196;21.416;2022-11-12T10:24:42;39.65;;;30.35;;
35306;SDS011;21420;52.196;21.416;2022-11-12T10:27:32;43.63;;;32.17;;
35306;SDS011;21420;52.196;21.416;2022-11-12T10:30:19;37.25;;;29.95;;
35306;SDS011;21420;52.196;21.416;2022-11-12T10:33:09;40.60;;;30.37;;
35306;SDS011;21420;52.196;21.416;2022-11-12T10:36:05;40.75;;;31.45;;
35306;SDS011;21420;52.196;21.416;2022-11-12T10:42:21;45.05;;;33.90;;
35306;SDS011;21420;52.196;21.416;2022-11-12T10:45:19;35.17;;;27.60;;
35306;SDS011;21420;52.196;21.416;2022-11-12T10:48:29;38.20;;;30.62;;
35306;SDS011;21420;52.196;21.416;2022-11-12T10:51:18;41.45;;;33.78;;
35306;SDS011;21420;52.196;21.416;2022-11-12T10:57:20;42.40;;;32.38;;
35306;SDS011;21420;52.196;21.416;2022-11-12T11:03:09;37.15;;;27.27;;
35306;SDS011;21420;52.196;21.416;2022-11-12T11:08:44;41.15;;;29.55;;
35306;SDS011;21420;52.196;21.416;2022-11-12T11:11:34;42.40;;;32.78;;
35306;SDS011;21420;52.196;21.416;2022-11-12T11:14:23;40.17;;;31.42;;
35306;SDS011;21420;52.196;21.416;2022-11-12T11:17:15;38.42;;;32.00;;
35306;SDS011;21420;52.196;21.416;2022-11-12T11:20:03;39.03;;;32.40;;
35306;SDS011;21420;52.196;21.416;2022-11-12T11:22:55;44.33;;;32.83;;
35306;SDS011;21420;52.196;21.416;2022-11-12T11:25:43;41.20;;;30.25;;
35306;SDS011;21420;52.196;21.416;2022-11-12T11:35:23;36.15;;;28.02;;
35306;SDS011;21420;52.196;21.416;2022-11-12T11:41:33;34.20;;;28.45;;
35306;SDS011;21420;52.196;21.416;2022-11-12T11:47:44;32.28;;;25.40;;
35306;SDS011;21420;52.196;21.416;2022-11-12T11:50:58;38.98;;;30.65;;
35306;SDS011;21420;52.196;21.416;2022-11-12T11:57:08;37.40;;;28.30;;
35306;SDS011;21420;52.196;21.416;2022-11-12T12:09:12;34.88;;;27.70;;
35306;SDS011;21420;52.196;21.416;2022-11-12T12:21:45;37.35;;;29.37;;
35306;SDS011;21420;52.196;21.416;2022-11-12T12:24:44;33.73;;;28.52;;
35306;SDS011;21420;52.196;21.416;2022-11-12T12:27:40;33.75;;;27.17;;
35306;SDS011;21420;52.196;21.416;2022-11-12T12:30:23;35.73;;;28.27;;
35306;SDS011;21420;52.196;21.416;2022-11-12T12:36:05;30.68;;;26.87;;
35306;SDS011;21420;52.196;21.416;2022-11-12T12:44:56;27.67;;;22.45;;
35306;SDS011;21420;52.196;21.416;2022-11-12T12:47:47;29.77;;;24.55;;
35306;SDS011;21420;52.196;21.416;2022-11-12T12:50:33;23.27;;;20.65;;
35306;SDS011;21420;52.196;21.416;2022-11-12T12:59:24;24.72;;;20.25;;
35306;SDS011;21420;52.196;21.416;2022-11-12T13:02:18;24.80;;;19.90;;
35306;SDS011;21420;52.196;21.416;2022-11-12T13:08:26;26.70;;;20.92;;
35306;SDS011;21420;52.196;21.416;2022-11-12T13:11:08;29.15;;;22.15;;
35306;SDS011;21420;52.196;21.416;2022-11-12T13:13:53;24.27;;;21.65;;
35306;SDS011;21420;52.196;21.416;2022-11-12T13:22:54;28.65;;;23.02;;
35306;SDS011;21420;52.196;21.416;2022-11-12T13:25:38;24.90;;;19.60;;
35306;SDS011;21420;52.196;21.416;2022-11-12T13:28:23;26.12;;;22.35;;
35306;SDS011;21420;52.196;21.416;2022-11-12T13:31:23;22.93;;;19.55;;
35306;SDS011;21420;52.196;21.416;2022-11-12T13:34:21;23.90;;;21.07;;
35306;SDS011;21420;52.196;21.416;2022-11-12T13:37:11;25.17;;;21.12;;
35306;SDS011;21420;52.196;21.416;2022-11-12T13:39:55;23.12;;;19.07;;
35306;SDS011;21420;52.196;21.416;2022-11-12T13:42:46;27.42;;;21.73;;
35306;SDS011;21420;52.196;21.416;2022-11-12T13:45:31;20.88;;;18.12;;
35306;SDS011;21420;52.196;21.416;2022-11-12T13:48:22;24.12;;;17.95;;
35306;SDS011;21420;52.196;21.416;2022-11-12T13:54:34;27.62;;;20.37;;
35306;SDS011;21420;52.196;21.416;2022-11-12T14:03:13;26.33;;;21.70;;
35306;SDS011;21420;52.196;21.416;2022-11-12T14:06:01;25.52;;;20.77;;
35306;SDS011;21420;52.196;21.416;2022-11-12T14:11:45;23.38;;;17.75;;
35306;SDS011;21420;52.196;21.416;2022-11-12T14:21:16;26.87;;;19.82;;
35306;SDS011;21420;52.196;21.416;2022-11-12T14:24:02;23.25;;;19.75;;
35306;SDS011;21420;52.196;21.416;2022-11-12T14:26:48;23.45;;;20.82;;
35306;SDS011;21420;52.196;21.416;2022-11-12T14:29:33;26.45;;;22.42;;
35306;SDS011;21420;52.196;21.416;2022-11-12T14:32:18;28.65;;;23.90;;
35306;SDS011;21420;52.196;21.416;2022-11-12T14:35:19;31.07;;;23.77;;
35306;SDS011;21420;52.196;21.416;2022-11-12T14:38:28;29.70;;;25.05;;
35306;SDS011;21420;52.196;21.416;2022-11-12T14:41:32;28.20;;;24.32;;
35306;SDS011;21420;52.196;21.416;2022-11-12T14:44:22;30.50;;;25.02;;
35306;SDS011;21420;52.196;21.416;2022-11-12T14:47:12;33.85;;;26.82;;
35306;SDS011;21420;52.196;21.416;2022-11-12T14:50:00;36.30;;;28.38;;
35306;SDS011;21420;52.196;21.416;2022-11-12T14:52:46;35.15;;;28.52;;
35306;SDS011;21420;52.196;21.416;2022-11-12T14:55:36;33.98;;;27.62;;
35306;SDS011;21420;52.196;21.416;2022-11-12T14:58:23;35.90;;;27.85;;
35306;SDS011;21420;52.196;21.416;2022-11-12T15:01:17;34.08;;;26.90;;
35306;SDS011;21420;52.196;21.416;2022-11-12T15:04:19;33.33;;;26.00;;
35306;SDS011;21420;52.196;21.416;2022-11-12T15:07:21;36.48;;;26.65;;
35306;SDS011;21420;52.196;21.416;2022-11-12T15:13:21;29.40;;;26.12;;
35306;SDS011;21420;52.196;21.416;2022-11-12T15:16:11;33.90;;;25.45;;
35306;SDS011;21420;52.196;21.416;2022-11-12T15:21:31;35.52;;;28.35;;
35306;SDS011;21420;52.196;21.416;2022-11-12T15:24:51;43.10;;;34.03;;
35306;SDS011;21420;52.196;21.416;2022-11-12T15:30:25;42.67;;;32.20;;
35306;SDS011;21420;52.196;21.416;2022-11-12T15:33:15;35.70;;;30.05;;
35306;SDS011;21420;52.196;21.416;2022-11-12T15:36:10;35.00;;;29.80;;
35306;SDS011;21420;52.196;21.416;2022-11-12T15:39:03;36.03;;;28.38;;
35306;SDS011;21420;52.196;21.416;2022-11-12T15:41:57;34.60;;;28.70;;
35306;SDS011;21420;52.196;21.416;2022-11-12T15:44:45;44.00;;;34.67;;
35306;SDS011;21420;52.196;21.416;2022-11-12T15:47:31;63.33;;;45.95;;
35306;SDS011;21420;52.196;21.416;2022-11-12T15:50:21;81.00;;;57.23;;
35306;SDS011;21420;52.196;21.416;2022-11-12T15:53:05;41.75;;;34.30;;
35306;SDS011;21420;52.196;21.416;2022-11-12T15:55:50;104.38;;;62.90;;
35306;SDS011;21420;52.196;21.416;2022-11-12T15:58:35;67.10;;;43.83;;
35306;SDS011;21420;52.196;21.416;2022-11-12T16:01:23;159.43;;;94.40;;
35306;SDS011;21420;52.196;21.416;2022-11-12T16:04:08;81.12;;;54.63;;
35306;SDS011;21420;52.196;21.416;2022-11-12T16:06:55;31.10;;;24.55;;
35306;SDS011;21420;52.196;21.416;2022-11-12T16:09:40;30.15;;;23.77;;
35306;SDS011;21420;52.196;21.416;2022-11-12T16:12:24;34.43;;;26.37;;
35306;SDS011;21420;52.196;21.416;2022-11-12T16:15:14;34.92;;;27.93;;
35306;SDS011;21420;52.196;21.416;2022-11-12T16:18:03;40.90;;;28.12;;
35306;SDS011;21420;52.196;21.416;2022-11-12T16:20:49;92.05;;;54.63;;
35306;SDS011;21420;52.196;21.416;2022-11-12T16:23:34;69.35;;;43.65;;
35306;SDS011;21420;52.196;21.416;2022-11-12T16:26:22;46.77;;;34.50;;
35306;SDS011;21420;52.196;21.416;2022-11-12T16:29:11;44.23;;;31.70;;
35306;SDS011;21420;52.196;21.416;2022-11-12T16:31:56;41.50;;;31.55;;
35306;SDS011;21420;52.196;21.416;2022-11-12T16:34:41;47.70;;;36.93;;
35306;SDS011;21420;52.196;21.416;2022-11-12T16:37:26;45.28;;;36.60;;
35306;SDS011;21420;52.196;21.416;2022-11-12T16:40:15;47.43;;;35.73;;
35306;SDS011;21420;52.196;21.416;2022-11-12T16:43:09;49.03;;;36.05;;
35306;SDS011;21420;52.196;21.416;2022-11-12T16:45:55;52.27;;;38.55;;
35306;SDS011;21420;52.196;21.416;2022-11-12T16:48:40;36.83;;;30.40;;
35306;SDS011;21420;52.196;21.416;2022-11-12T16:51:25;41.10;;;31.95;;
35306;SDS011;21420;52.196;21.416;2022-11-12T16:54:10;37.03;;;26.87;;
35306;SDS011;21420;52.196;21.416;2022-11-12T16:56:56;36.13;;;28.52;;
35306;SDS011;21420;52.196;21.416;2022-11-12T16:59:41;36.25;;;27.90;;
35306;SDS011;21420;52.196;21.416;2022-11-12T17:02:26;33.63;;;28.32;;
35306;SDS011;21420;52.196;21.416;2022-11-12T17:05:13;35.65;;;30.30;;
35306;SDS011;21420;52.196;21.416;2022-11-12T17:08:02;41.05;;;35.15;;
35306;SDS011;21420;52.196;21.416;2022-11-12T17:10:48;46.33;;;35.92;;
35306;SDS011;21420;52.196;21.416;2022-11-12T17:13:33;39.38;;;31.57;;
35306;SDS011;21420;52.196;21.416;2022-11-12T17:16:21;38.45;;;29.72;;
35306;SDS011;21420;52.196;21.416;2022-11-12T17:19:08;39.35;;;30.30;;
35306;SDS011;21420;52.196;21.416;2022-11-12T17:21:53;40.25;;;31.07;;
35306;SDS011;21420;52.196;21.416;2022-11-12T17:24:38;40.52;;;30.50;;
35306;SDS011;21420;52.196;21.416;2022-11-12T17:27:23;40.17;;;31.00;;
35306;SDS011;21420;52.196;21.416;2022-11-12T17:30:08;42.55;;;31.55;;
35306;SDS011;21420;52.196;21.416;2022-11-12T17:32:55;39.40;;;32.23;;
35306;SDS011;21420;52.196;21.416;2022-11-12T17:35:43;41.98;;;32.00;;
35306;SDS011;21420;52.196;21.416;2022-11-12T17:38:28;41.85;;;32.20;;
35306;SDS011;21420;52.196;21.416;2022-11-12T17:41:14;39.03;;;31.85;;
35306;SDS011;21420;52.196;21.416;2022-11-12T17:43:59;39.67;;;30.82;;
35306;SDS011;21420;52.196;21.416;2022-11-12T17:46:47;40.05;;;30.43;;
35306;SDS011;21420;52.196;21.416;2022-11-12T17:49:33;39.00;;;32.70;;
35306;SDS011;21420;52.196;21.416;2022-11-12T17:52:17;37.98;;;29.05;;
35306;SDS011;21420;52.196;21.416;2022-11-12T17:55:04;40.83;;;30.62;;
35306;SDS011;21420;52.196;21.416;2022-11-12T17:57:49;37.67;;;30.05;;
35306;SDS011;21420;52.196;21.416;2022-11-12T18:00:34;37.58;;;30.60;;
35306;SDS011;21420;52.196;21.416;2022-11-12T18:03:24;43.42;;;31.90;;
35306;SDS011;21420;52.196;21.416;2022-11-12T18:06:10;44.80;;;34.65;;